Main page
Satellite images 10-day forecastsClimateMarine weather Cyclones Lightning AirportsFAQ Newsletter About
Weather : Europe Africa North America South America Asia Australia-Oceania Others
Languages Contact

Longyearbyen, Longyear,

Svalbard Airport

latitude: Norway, longitude: 78-15N, elevation: 015-28E m


METAR: ENSB 040050Z 24010KT 9999 FEW007 BKN041 09/06 Q1022 RMK WIND 1400FT 27004KT
TAF: ENSB 0400/0424 12009KT 9999 FEW010 BKN060 TEMPO 0400/0409 24015KT

Time: 03:16 (01:16 UTC)

Current weather observation

The report was made 26 minutes ago, at 00:50 UTC
Wind 10 kt from the West/Southwest
Temperature 9°C
Humidity 81%
Pressure 1022 hPa
Visibility 10 km or more
Few clouds at a height of 700 ft
Broken clouds at a height of 4100 ft

Change units

Forecast

Forecast valid from 04 at 00 UTC to 04 at 24 UTC
Wind 9 kt from the East/Southeast
Visibility 10 km or more
Few clouds at a height of 1000 ft
Broken clouds at a height of 6000 ft
Temporary
from 04 at 00 UTC to 04 at 09 UTC
Wind 15 kt from the West/Southwest
The information on this site is subject to a disclaimer
Weather : Europe Africa North America South America Asia Australia-Oceania Others
Satellite images 10-day forecastsClimateMarine weather Cyclones Lightning AirportsFAQ Languages Contact Newsletter About